sensor_id;sensor_type;location;lat;lon;timestamp;pressure;altitude;pressure_sealevel;temperature;humidity
29359;BME280;16347;53.232;6.556;2023-07-24T00:02:13;100242.94;;;19.42;67.49
29359;BME280;16347;53.232;6.556;2023-07-24T00:04:41;100248.72;;;19.34;68.33
29359;BME280;16347;53.232;6.556;2023-07-24T00:07:09;100238.84;;;19.45;67.92
29359;BME280;16347;53.232;6.556;2023-07-24T00:09:37;100243.91;;;19.30;68.57
29359;BME280;16347;53.232;6.556;2023-07-24T00:12:06;100246.19;;;19.33;68.44
29359;BME280;16347;53.232;6.556;2023-07-24T00:14:35;100247.25;;;19.32;68.06
29359;BME280;16347;53.232;6.556;2023-07-24T00:17:03;100243.53;;;19.44;68.29
29359;BME280;16347;53.232;6.556;2023-07-24T00:19:31;100247.19;;;19.38;68.04
29359;BME280;16347;53.232;6.556;2023-07-24T00:21:59;100244.06;;;19.53;67.90
29359;BME280;16347;53.232;6.556;2023-07-24T00:24:27;100246.53;;;19.43;68.47
29359;BME280;16347;53.232;6.556;2023-07-24T00:26:55;100244.75;;;19.30;68.77
29359;BME280;16347;53.232;6.556;2023-07-24T00:29:23;100233.84;;;19.35;68.92
29359;BME280;16347;53.232;6.556;2023-07-24T00:31:52;100243.06;;;19.48;68.67
29359;BME280;16347;53.232;6.556;2023-07-24T00:34:20;100247.13;;;19.45;68.49
29359;BME280;16347;53.232;6.556;2023-07-24T00:36:48;100238.47;;;19.41;68.86
29359;BME280;16347;53.232;6.556;2023-07-24T00:39:16;100239.16;;;19.37;68.93
29359;BME280;16347;53.232;6.556;2023-07-24T00:41:44;100228.22;;;19.30;69.96
29359;BME280;16347;53.232;6.556;2023-07-24T00:44:13;100235.00;;;19.28;69.59
29359;BME280;16347;53.232;6.556;2023-07-24T00:46:41;100240.44;;;19.34;69.80
29359;BME280;16347;53.232;6.556;2023-07-24T00:49:10;100243.13;;;19.23;69.82
29359;BME280;16347;53.232;6.556;2023-07-24T00:51:39;100235.78;;;19.35;69.45
29359;BME280;16347;53.232;6.556;2023-07-24T00:54:07;100244.13;;;19.28;69.77
29359;BME280;16347;53.232;6.556;2023-07-24T00:56:35;100244.13;;;19.28;69.96
29359;BME280;16347;53.232;6.556;2023-07-24T00:59:03;100239.31;;;19.24;70.07
29359;BME280;16347;53.232;6.556;2023-07-24T01:01:31;100246.78;;;19.35;69.79
29359;BME280;16347;53.232;6.556;2023-07-24T01:03:59;100237.47;;;19.36;69.82
29359;BME280;16347;53.232;6.556;2023-07-24T01:06:30;100237.53;;;19.29;70.37
29359;BME280;16347;53.232;6.556;2023-07-24T01:08:58;100233.81;;;19.24;70.24
29359;BME280;16347;53.232;6.556;2023-07-24T01:11:29;100234.69;;;19.18;71.21
29359;BME280;16347;53.232;6.556;2023-07-24T01:14:04;100230.34;;;19.28;71.23
29359;BME280;16347;53.232;6.556;2023-07-24T01:16:37;100233.03;;;19.17;71.14
29359;BME280;16347;53.232;6.556;2023-07-24T01:19:15;100225.28;;;19.25;71.38
29359;BME280;16347;53.232;6.556;2023-07-24T01:21:56;100221.09;;;19.23;71.08
29359;BME280;16347;53.232;6.556;2023-07-24T01:24:33;100209.38;;;19.09;71.73
29359;BME280;16347;53.232;6.556;2023-07-24T01:27:03;100206.75;;;19.32;71.28
29359;BME280;16347;53.232;6.556;2023-07-24T01:29:31;100207.06;;;19.24;71.19
29359;BME280;16347;53.232;6.556;2023-07-24T01:31:59;100201.25;;;19.32;71.08
29359;BME280;16347;53.232;6.556;2023-07-24T01:34:27;100200.56;;;19.37;70.86
29359;BME280;16347;53.232;6.556;2023-07-24T01:36:55;100203.63;;;19.29;70.69
29359;BME280;16347;53.232;6.556;2023-07-24T01:39:24;100216.97;;;19.14;71.04
29359;BME280;16347;53.232;6.556;2023-07-24T01:41:52;100211.19;;;19.15;71.83
29359;BME280;16347;53.232;6.556;2023-07-24T01:44:23;100208.59;;;19.02;72.39
29359;BME280;16347;53.232;6.556;2023-07-24T01:46:51;100204.16;;;19.01;72.56
29359;BME280;16347;53.232;6.556;2023-07-24T01:49:19;100198.44;;;19.03;72.20
29359;BME280;16347;53.232;6.556;2023-07-24T01:51:47;100203.31;;;19.01;72.30
29359;BME280;16347;53.232;6.556;2023-07-24T01:54:15;100195.97;;;19.13;71.67
29359;BME280;16347;53.232;6.556;2023-07-24T01:56:42;100196.50;;;19.03;72.18
29359;BME280;16347;53.232;6.556;2023-07-24T01:59:11;100202.53;;;19.12;71.63
29359;BME280;16347;53.232;6.556;2023-07-24T02:01:40;100192.06;;;19.20;71.38
29359;BME280;16347;53.232;6.556;2023-07-24T02:04:08;100194.19;;;19.18;72.01
29359;BME280;16347;53.232;6.556;2023-07-24T02:06:36;100182.41;;;19.11;72.31
29359;BME280;16347;53.232;6.556;2023-07-24T02:09:04;100188.16;;;19.10;72.80
29359;BME280;16347;53.232;6.556;2023-07-24T02:11:32;100183.19;;;19.18;72.14
29359;BME280;16347;53.232;6.556;2023-07-24T02:13:59;100190.00;;;19.16;72.67
29359;BME280;16347;53.232;6.556;2023-07-24T02:16:27;100185.56;;;19.15;72.23
29359;BME280;16347;53.232;6.556;2023-07-24T02:18:57;100189.41;;;19.14;73.20
29359;BME280;16347;53.232;6.556;2023-07-24T02:21:25;100187.63;;;19.19;72.60
29359;BME280;16347;53.232;6.556;2023-07-24T02:23:54;100183.19;;;19.18;72.37
29359;BME280;16347;53.232;6.556;2023-07-24T02:26:21;100182.72;;;19.21;72.42
29359;BME280;16347;53.232;6.556;2023-07-24T02:28:49;100175.66;;;19.25;72.61
29359;BME280;16347;53.232;6.556;2023-07-24T02:31:17;100174.00;;;19.06;73.04
29359;BME280;16347;53.232;6.556;2023-07-24T02:33:45;100181.94;;;19.14;73.50
29359;BME280;16347;53.232;6.556;2023-07-24T02:36:14;100171.78;;;19.15;73.28
29359;BME280;16347;53.232;6.556;2023-07-24T02:38:42;100176.50;;;19.26;72.86
29359;BME280;16347;53.232;6.556;2023-07-24T02:41:10;100178.03;;;19.22;72.87
29359;BME280;16347;53.232;6.556;2023-07-24T02:43:38;100166.97;;;19.10;73.48
29359;BME280;16347;53.232;6.556;2023-07-24T02:46:06;100170.78;;;19.09;73.48
29359;BME280;16347;53.232;6.556;2023-07-24T02:48:34;100175.00;;;19.12;73.96
29359;BME280;16347;53.232;6.556;2023-07-24T02:51:03;100181.44;;;19.24;73.15
29359;BME280;16347;53.232;6.556;2023-07-24T02:53:32;100165.25;;;19.27;72.92
29359;BME280;16347;53.232;6.556;2023-07-24T02:56:00;100167.88;;;19.22;73.75
29359;BME280;16347;53.232;6.556;2023-07-24T02:58:30;100175.75;;;19.19;73.63
29359;BME280;16347;53.232;6.556;2023-07-24T03:01:02;100179.53;;;19.06;73.82
29359;BME280;16347;53.232;6.556;2023-07-24T03:03:30;100183.19;;;19.00;74.16
29359;BME280;16347;53.232;6.556;2023-07-24T03:05:58;100179.53;;;19.06;73.98
29359;BME280;16347;53.232;6.556;2023-07-24T03:08:26;100179.13;;;19.03;74.39
29359;BME280;16347;53.232;6.556;2023-07-24T03:10:55;100172.22;;;19.12;74.00
29359;BME280;16347;53.232;6.556;2023-07-24T03:13:26;100173.78;;;18.89;74.73
29359;BME280;16347;53.232;6.556;2023-07-24T03:15:56;100167.88;;;19.04;74.73
29359;BME280;16347;53.232;6.556;2023-07-24T03:18:25;100185.16;;;19.11;74.14
29359;BME280;16347;53.232;6.556;2023-07-24T03:20:53;100186.78;;;19.01;74.21
29359;BME280;16347;53.232;6.556;2023-07-24T03:23:21;100183.44;;;19.17;74.09
29359;BME280;16347;53.232;6.556;2023-07-24T03:25:49;100180.22;;;19.20;73.88
29359;BME280;16347;53.232;6.556;2023-07-24T03:28:18;100176.00;;;18.99;74.57
29359;BME280;16347;53.232;6.556;2023-07-24T03:30:46;100164.28;;;19.04;74.28
29359;BME280;16347;53.232;6.556;2023-07-24T03:33:14;100175.63;;;18.95;74.03
29359;BME280;16347;53.232;6.556;2023-07-24T03:35:41;100184.88;;;19.01;74.47
29359;BME280;16347;53.232;6.556;2023-07-24T03:38:09;100176.59;;;19.01;74.18
29359;BME280;16347;53.232;6.556;2023-07-24T03:40:37;100168.34;;;19.01;73.86
29359;BME280;16347;53.232;6.556;2023-07-24T03:43:05;100171.63;;;19.10;73.92
29359;BME280;16347;53.232;6.556;2023-07-24T03:45:34;100174.00;;;19.06;74.35
29359;BME280;16347;53.232;6.556;2023-07-24T03:48:03;100172.22;;;19.12;74.17
29359;BME280;16347;53.232;6.556;2023-07-24T03:50:31;100162.44;;;19.16;74.11
29359;BME280;16347;53.232;6.556;2023-07-24T03:52:58;100165.41;;;19.14;74.13
29359;BME280;16347;53.232;6.556;2023-07-24T03:55:26;100169.41;;;19.18;73.77
29359;BME280;16347;53.232;6.556;2023-07-24T03:57:54;100170.63;;;19.04;74.13
29359;BME280;16347;53.232;6.556;2023-07-24T04:00:22;100165.66;;;19.13;74.07
29359;BME280;16347;53.232;6.556;2023-07-24T04:02:51;100178.59;;;19.12;74.57
29359;BME280;16347;53.232;6.556;2023-07-24T04:05:19;100173.63;;;19.03;74.61
29359;BME280;16347;53.232;6.556;2023-07-24T04:07:47;100169.19;;;19.02;74.81
29359;BME280;16347;53.232;6.556;2023-07-24T04:10:15;100178.66;;;19.06;74.79
29359;BME280;16347;53.232;6.556;2023-07-24T04:12:43;100173.94;;;19.13;74.79
29359;BME280;16347;53.232;6.556;2023-07-24T04:15:11;100174.69;;;19.02;74.54
29359;BME280;16347;53.232;6.556;2023-07-24T04:17:38;100179.28;;;19.08;74.39
29359;BME280;16347;53.232;6.556;2023-07-24T04:20:10;100159.78;;;19.09;74.58
29359;BME280;16347;53.232;6.556;2023-07-24T04:22:38;100160.66;;;19.21;74.46
29359;BME280;16347;53.232;6.556;2023-07-24T04:25:07;100167.09;;;19.33;73.59
29359;BME280;16347;53.232;6.556;2023-07-24T04:27:37;100153.63;;;19.25;74.17
29359;BME280;16347;53.232;6.556;2023-07-24T04:30:06;100156.25;;;19.20;74.30
29359;BME280;16347;53.232;6.556;2023-07-24T04:32:34;100161.13;;;19.18;73.75
29359;BME280;16347;53.232;6.556;2023-07-24T04:35:03;100153.88;;;19.24;74.16
29359;BME280;16347;53.232;6.556;2023-07-24T04:37:33;100151.34;;;19.22;74.13
29359;BME280;16347;53.232;6.556;2023-07-24T04:40:02;100143.06;;;19.22;73.67
29359;BME280;16347;53.232;6.556;2023-07-24T04:42:30;100156.63;;;19.24;73.86
29359;BME280;16347;53.232;6.556;2023-07-24T04:44:58;100156.16;;;19.27;73.83
29359;BME280;16347;53.232;6.556;2023-07-24T04:47:26;100156.53;;;19.30;73.71
29359;BME280;16347;53.232;6.556;2023-07-24T04:49:54;100147.56;;;19.35;73.96
29359;BME280;16347;53.232;6.556;2023-07-24T04:52:22;100147.41;;;19.30;73.81
29359;BME280;16347;53.232;6.556;2023-07-24T04:54:52;100157.34;;;19.31;74.30
29359;BME280;16347;53.232;6.556;2023-07-24T04:57:20;100152.47;;;19.33;73.71
29359;BME280;16347;53.232;6.556;2023-07-24T04:59:48;100150.09;;;19.18;74.75
29359;BME280;16347;53.232;6.556;2023-07-24T05:02:15;100155.78;;;19.23;74.68
29359;BME280;16347;53.232;6.556;2023-07-24T05:04:43;100156.38;;;19.25;74.70
29359;BME280;16347;53.232;6.556;2023-07-24T05:07:11;100146.13;;;19.14;74.80
29359;BME280;16347;53.232;6.556;2023-07-24T05:09:39;100134.56;;;19.24;74.19
29359;BME280;16347;53.232;6.556;2023-07-24T05:12:10;100137.00;;;19.32;74.59
29359;BME280;16347;53.232;6.556;2023-07-24T05:14:38;100132.88;;;19.23;74.32
29359;BME280;16347;53.232;6.556;2023-07-24T05:17:05;100132.50;;;19.19;75.35
29359;BME280;16347;53.232;6.556;2023-07-24T05:19:33;100126.63;;;19.16;75.47
29359;BME280;16347;53.232;6.556;2023-07-24T05:22:01;100120.25;;;19.15;74.97
29359;BME280;16347;53.232;6.556;2023-07-24T05:24:29;100116.34;;;19.23;74.86
29359;BME280;16347;53.232;6.556;2023-07-24T05:26:57;100127.19;;;19.36;74.78
29359;BME280;16347;53.232;6.556;2023-07-24T05:29:27;100131.56;;;19.25;74.51
29359;BME280;16347;53.232;6.556;2023-07-24T05:31:55;100137.38;;;19.35;74.46
29359;BME280;16347;53.232;6.556;2023-07-24T05:34:23;100128.25;;;19.35;74.50
29359;BME280;16347;53.232;6.556;2023-07-24T05:36:51;100133.47;;;19.25;74.76
29359;BME280;16347;53.232;6.556;2023-07-24T05:39:18;100133.56;;;19.18;74.84
29359;BME280;16347;53.232;6.556;2023-07-24T05:41:47;100122.38;;;19.31;74.98
29359;BME280;16347;53.232;6.556;2023-07-24T05:44:14;100127.97;;;19.43;74.70
29359;BME280;16347;53.232;6.556;2023-07-24T05:46:44;100135.78;;;19.46;73.73
29359;BME280;16347;53.232;6.556;2023-07-24T05:49:12;100138.81;;;19.38;74.10
29359;BME280;16347;53.232;6.556;2023-07-24T05:51:39;100129.63;;;19.44;74.23
29359;BME280;16347;53.232;6.556;2023-07-24T05:54:07;100133.72;;;19.41;73.85
29359;BME280;16347;53.232;6.556;2023-07-24T05:56:35;100141.50;;;19.44;74.26
29359;BME280;16347;53.232;6.556;2023-07-24T05:59:07;100145.63;;;19.35;74.46
29359;BME280;16347;53.232;6.556;2023-07-24T06:01:35;100141.81;;;19.36;74.14
29359;BME280;16347;53.232;6.556;2023-07-24T06:04:05;100129.63;;;19.44;74.62
29359;BME280;16347;53.232;6.556;2023-07-24T06:06:34;100139.00;;;19.43;74.45
29359;BME280;16347;53.232;6.556;2023-07-24T06:09:03;100144.78;;;19.35;74.54
29359;BME280;16347;53.232;6.556;2023-07-24T06:11:31;100141.13;;;19.41;74.56
29359;BME280;16347;53.232;6.556;2023-07-24T06:13:59;100143.56;;;19.31;74.75
29359;BME280;16347;53.232;6.556;2023-07-24T06:16:27;100139.75;;;19.50;74.16
29359;BME280;16347;53.232;6.556;2023-07-24T06:18:55;100148.13;;;19.43;73.97
29359;BME280;16347;53.232;6.556;2023-07-24T06:21:25;100141.97;;;19.41;73.76
29359;BME280;16347;53.232;6.556;2023-07-24T06:23:53;100137.97;;;19.37;74.42
29359;BME280;16347;53.232;6.556;2023-07-24T06:26:20;100137.22;;;19.49;74.52
29359;BME280;16347;53.232;6.556;2023-07-24T06:28:48;100131.69;;;19.49;74.40
29359;BME280;16347;53.232;6.556;2023-07-24T06:31:16;100134.13;;;19.57;74.33
29359;BME280;16347;53.232;6.556;2023-07-24T06:33:44;100132.44;;;19.56;73.59
29359;BME280;16347;53.232;6.556;2023-07-24T06:36:12;100128.75;;;19.62;73.90
29359;BME280;16347;53.232;6.556;2023-07-24T06:38:42;100135.81;;;19.58;73.91
29359;BME280;16347;53.232;6.556;2023-07-24T06:41:10;100134.88;;;19.64;73.77
29359;BME280;16347;53.232;6.556;2023-07-24T06:43:57;100135.69;;;19.64;73.19
29359;BME280;16347;53.232;6.556;2023-07-24T06:46:25;100141.69;;;19.61;73.53
29359;BME280;16347;53.232;6.556;2023-07-24T06:48:53;100146.66;;;19.71;73.44
29359;BME280;16347;53.232;6.556;2023-07-24T06:51:21;100138.72;;;19.74;73.50
29359;BME280;16347;53.232;6.556;2023-07-24T06:53:50;100143.75;;;19.66;73.48
29359;BME280;16347;53.232;6.556;2023-07-24T06:56:18;100137.66;;;19.64;73.86
29359;BME280;16347;53.232;6.556;2023-07-24T06:58:46;100138.94;;;19.61;73.93
29359;BME280;16347;53.232;6.556;2023-07-24T07:01:14;100135.69;;;19.64;73.24
29359;BME280;16347;53.232;6.556;2023-07-24T07:03:42;100145.66;;;19.65;73.88
29359;BME280;16347;53.232;6.556;2023-07-24T07:06:10;100139.03;;;19.55;73.91
29359;BME280;16347;53.232;6.556;2023-07-24T07:08:58;100141.59;;;19.68;73.84
29359;BME280;16347;53.232;6.556;2023-07-24T07:11:26;100145.91;;;19.64;73.89
29359;BME280;16347;53.232;6.556;2023-07-24T07:13:54;100140.41;;;19.64;74.06
29359;BME280;16347;53.232;6.556;2023-07-24T07:16:22;100150.59;;;19.63;73.15
29359;BME280;16347;53.232;6.556;2023-07-24T07:18:50;100136.53;;;19.53;73.93
29359;BME280;16347;53.232;6.556;2023-07-24T07:21:17;100145.09;;;19.45;74.54
29359;BME280;16347;53.232;6.556;2023-07-24T07:23:45;100141.97;;;19.41;74.25
29359;BME280;16347;53.232;6.556;2023-07-24T07:26:15;100133.94;;;19.40;74.80
29359;BME280;16347;53.232;6.556;2023-07-24T07:28:43;100140.94;;;19.54;74.22
29359;BME280;16347;53.232;6.556;2023-07-24T07:31:11;100140.41;;;19.64;74.08
29359;BME280;16347;53.232;6.556;2023-07-24T07:33:40;100138.72;;;19.63;73.90
29359;BME280;16347;53.232;6.556;2023-07-24T07:36:08;100133.66;;;19.60;73.86
29359;BME280;16347;53.232;6.556;2023-07-24T07:38:36;100139.94;;;19.67;74.21
29359;BME280;16347;53.232;6.556;2023-07-24T07:41:06;100135.00;;;19.57;74.46
29359;BME280;16347;53.232;6.556;2023-07-24T07:43:36;100126.47;;;19.59;74.27
29359;BME280;16347;53.232;6.556;2023-07-24T07:46:05;100120.34;;;19.57;74.56
29359;BME280;16347;53.232;6.556;2023-07-24T07:48:33;100129.59;;;19.62;74.82
29359;BME280;16347;53.232;6.556;2023-07-24T07:51:02;100123.47;;;19.60;74.43
29359;BME280;16347;53.232;6.556;2023-07-24T07:53:30;100119.19;;;19.76;74.12
29359;BME280;16347;53.232;6.556;2023-07-24T07:55:59;100120.72;;;19.60;74.09
29359;BME280;16347;53.232;6.556;2023-07-24T07:58:27;100118.50;;;19.80;74.37
29359;BME280;16347;53.232;6.556;2023-07-24T08:00:57;100120.53;;;19.85;73.54
29359;BME280;16347;53.232;6.556;2023-07-24T08:03:25;100114.22;;;19.96;73.09
29359;BME280;16347;53.232;6.556;2023-07-24T08:05:56;100116.75;;;19.98;73.60
29359;BME280;16347;53.232;6.556;2023-07-24T08:08:27;100112.88;;;19.98;72.61
29359;BME280;16347;53.232;6.556;2023-07-24T08:10:54;100113.75;;;20.11;72.76
29359;BME280;16347;53.232;6.556;2023-07-24T08:13:22;100112.78;;;20.05;72.18
29359;BME280;16347;53.232;6.556;2023-07-24T08:15:50;100121.75;;;19.89;73.55
29359;BME280;16347;53.232;6.556;2023-07-24T08:18:20;100123.91;;;19.98;73.37
29359;BME280;16347;53.232;6.556;2023-07-24T08:20:48;100118.28;;;20.05;72.57
29359;BME280;16347;53.232;6.556;2023-07-24T08:23:15;100119.38;;;20.04;71.92
29359;BME280;16347;53.232;6.556;2023-07-24T08:25:51;100117.81;;;19.96;72.60
29359;BME280;16347;53.232;6.556;2023-07-24T08:28:19;100122.25;;;20.09;71.86
29359;BME280;16347;53.232;6.556;2023-07-24T08:30:56;100115.41;;;20.12;72.48
29359;BME280;16347;53.232;6.556;2023-07-24T08:33:25;100115.06;;;20.20;72.43
29359;BME280;16347;53.232;6.556;2023-07-24T08:36:00;100124.06;;;20.15;71.77
29359;BME280;16347;53.232;6.556;2023-07-24T08:38:29;100114.72;;;20.16;71.38
29359;BME280;16347;53.232;6.556;2023-07-24T08:41:01;100105.47;;;20.22;71.79
29359;BME280;16347;53.232;6.556;2023-07-24T08:43:30;100111.75;;;20.29;71.01
29359;BME280;16347;53.232;6.556;2023-07-24T08:45:59;100113.06;;;20.38;71.12
29359;BME280;16347;53.232;6.556;2023-07-24T08:48:31;100102.50;;;20.35;70.73
29359;BME280;16347;53.232;6.556;2023-07-24T08:51:03;100109.66;;;20.25;71.25
29359;BME280;16347;53.232;6.556;2023-07-24T08:53:32;100105.47;;;20.22;70.64
29359;BME280;16347;53.232;6.556;2023-07-24T08:56:03;100105.03;;;20.37;70.49
29359;BME280;16347;53.232;6.556;2023-07-24T08:58:31;100099.38;;;20.43;70.29
29359;BME280;16347;53.232;6.556;2023-07-24T09:01:00;100101.31;;;20.43;70.42
29359;BME280;16347;53.232;6.556;2023-07-24T09:03:32;100107.56;;;20.27;70.58
29359;BME280;16347;53.232;6.556;2023-07-24T09:06:00;100108.13;;;20.29;70.79
29359;BME280;16347;53.232;6.556;2023-07-24T09:08:31;100109.09;;;20.46;70.68
29359;BME280;16347;53.232;6.556;2023-07-24T09:10:59;100106.25;;;20.41;70.14
29359;BME280;16347;53.232;6.556;2023-07-24T09:13:28;100101.53;;;20.41;70.30
29359;BME280;16347;53.232;6.556;2023-07-24T09:15:57;100104.78;;;20.50;69.65
29359;BME280;16347;53.232;6.556;2023-07-24T09:18:26;100105.13;;;20.42;70.18
29359;BME280;16347;53.232;6.556;2023-07-24T09:20:56;100097.94;;;20.53;69.97
29359;BME280;16347;53.232;6.556;2023-07-24T09:23:27;100100.56;;;20.59;69.84
29359;BME280;16347;53.232;6.556;2023-07-24T09:25:55;100101.41;;;20.60;69.47
29359;BME280;16347;53.232;6.556;2023-07-24T09:28:24;100093.69;;;20.62;69.54
29359;BME280;16347;53.232;6.556;2023-07-24T09:30:53;100090.00;;;20.68;68.81
29359;BME280;16347;53.232;6.556;2023-07-24T09:33:22;100097.31;;;20.74;68.12
29359;BME280;16347;53.232;6.556;2023-07-24T09:36:01;100088.75;;;20.75;67.96
29359;BME280;16347;53.232;6.556;2023-07-24T09:38:30;100091.44;;;20.70;68.51
29359;BME280;16347;53.232;6.556;2023-07-24T09:40:58;100078.56;;;20.76;68.44
29359;BME280;16347;53.232;6.556;2023-07-24T09:43:27;100086.00;;;20.75;68.58
29359;BME280;16347;53.232;6.556;2023-07-24T09:46:08;100087.72;;;20.53;68.61
29359;BME280;16347;53.232;6.556;2023-07-24T09:48:37;100085.19;;;20.63;68.74
29359;BME280;16347;53.232;6.556;2023-07-24T09:51:29;100089.81;;;20.86;67.92
29359;BME280;16347;53.232;6.556;2023-07-24T09:54:01;100094.28;;;20.87;67.74
29359;BME280;16347;53.232;6.556;2023-07-24T09:56:34;100087.06;;;20.86;67.78
29359;BME280;16347;53.232;6.556;2023-07-24T09:59:17;100084.84;;;20.99;66.16
29359;BME280;16347;53.232;6.556;2023-07-24T10:01:46;100078.50;;;21.11;66.47
29359;BME280;16347;53.232;6.556;2023-07-24T10:04:15;100067.88;;;21.19;66.02
29359;BME280;16347;53.232;6.556;2023-07-24T10:06:44;100065.09;;;21.19;64.66
29359;BME280;16347;53.232;6.556;2023-07-24T10:09:12;100064.03;;;21.20;64.78
29359;BME280;16347;53.232;6.556;2023-07-24T10:11:40;100062.38;;;21.36;64.37
29359;BME280;16347;53.232;6.556;2023-07-24T10:14:08;100061.97;;;21.27;63.32
29359;BME280;16347;53.232;6.556;2023-07-24T10:16:37;100058.34;;;21.27;64.02
29359;BME280;16347;53.232;6.556;2023-07-24T10:19:13;100062.53;;;21.29;63.67
29359;BME280;16347;53.232;6.556;2023-07-24T10:21:46;100064.03;;;21.20;64.05
29359;BME280;16347;53.232;6.556;2023-07-24T10:24:14;100070.41;;;21.21;63.21
29359;BME280;16347;53.232;6.556;2023-07-24T10:27:03;100054.94;;;21.36;64.22
29359;BME280;16347;53.232;6.556;2023-07-24T10:29:34;100053.63;;;21.56;62.99
29359;BME280;16347;53.232;6.556;2023-07-24T10:32:04;100044.50;;;21.55;62.93
29359;BME280;16347;53.232;6.556;2023-07-24T10:34:36;100053.78;;;21.66;62.78
29359;BME280;16347;53.232;6.556;2023-07-24T10:37:08;100055.13;;;21.63;62.05
29359;BME280;16347;53.232;6.556;2023-07-24T10:39:37;100055.25;;;21.68;62.21
29359;BME280;16347;53.232;6.556;2023-07-24T10:42:07;100052.47;;;21.85;61.78
29359;BME280;16347;53.232;6.556;2023-07-24T10:44:36;100053.06;;;21.87;61.29
29359;BME280;16347;53.232;6.556;2023-07-24T10:47:04;100051.00;;;21.94;62.79
29359;BME280;16347;53.232;6.556;2023-07-24T10:49:33;100044.69;;;21.82;64.08
29359;BME280;16347;53.232;6.556;2023-07-24T10:52:01;100064.97;;;21.71;63.66
29359;BME280;16347;53.232;6.556;2023-07-24T10:54:31;100066.19;;;21.46;64.62
29359;BME280;16347;53.232;6.556;2023-07-24T10:56:59;100068.78;;;21.53;64.19
29359;BME280;16347;53.232;6.556;2023-07-24T10:59:38;100066.13;;;21.58;64.35
29359;BME280;16347;53.232;6.556;2023-07-24T11:02:07;100062.53;;;21.29;65.94
29359;BME280;16347;53.232;6.556;2023-07-24T11:04:36;100050.84;;;20.99;65.85
29359;BME280;16347;53.232;6.556;2023-07-24T11:07:05;100069.56;;;20.69;65.99
29359;BME280;16347;53.232;6.556;2023-07-24T11:09:39;100062.53;;;20.89;66.08
29359;BME280;16347;53.232;6.556;2023-07-24T11:12:12;100055.38;;;20.77;66.87
29359;BME280;16347;53.232;6.556;2023-07-24T11:14:50;100073.50;;;20.84;67.07
29359;BME280;16347;53.232;6.556;2023-07-24T11:17:21;100067.00;;;20.79;67.71
29359;BME280;16347;53.232;6.556;2023-07-24T11:19:49;100081.09;;;20.77;67.60
29359;BME280;16347;53.232;6.556;2023-07-24T11:22:21;100072.53;;;20.90;67.54
29359;BME280;16347;53.232;6.556;2023-07-24T11:24:51;100077.78;;;20.92;67.36
29359;BME280;16347;53.232;6.556;2023-07-24T11:27:19;100072.88;;;20.94;67.68
29359;BME280;16347;53.232;6.556;2023-07-24T11:29:47;100074.56;;;20.95;68.54
29359;BME280;16347;53.232;6.556;2023-07-24T11:32:18;100070.81;;;21.01;69.12
29359;BME280;16347;53.232;6.556;2023-07-24T11:34:46;100056.47;;;21.16;70.01
29359;BME280;16347;53.232;6.556;2023-07-24T11:37:15;100065.38;;;21.18;69.18
29359;BME280;16347;53.232;6.556;2023-07-24T11:39:43;100058.50;;;21.09;69.87
29359;BME280;16347;53.232;6.556;2023-07-24T11:42:12;100054.81;;;21.15;69.49
29359;BME280;16347;53.232;6.556;2023-07-24T11:44:40;100051.53;;;21.18;69.74
29359;BME280;16347;53.232;6.556;2023-07-24T11:47:08;100048.13;;;21.27;70.03
29359;BME280;16347;53.232;6.556;2023-07-24T11:49:36;100050.44;;;21.19;69.11
29359;BME280;16347;53.232;6.556;2023-07-24T11:52:05;100037.91;;;21.28;69.92
29359;BME280;16347;53.232;6.556;2023-07-24T11:54:34;100053.13;;;21.42;68.44
29359;BME280;16347;53.232;6.556;2023-07-24T11:57:02;100062.56;;;21.46;67.41
29359;BME280;16347;53.232;6.556;2023-07-24T11:59:37;100062.34;;;21.47;67.17
29359;BME280;16347;53.232;6.556;2023-07-24T12:02:09;100056.72;;;21.59;66.59
29359;BME280;16347;53.232;6.556;2023-07-24T12:04:37;100042.81;;;21.71;66.25
29359;BME280;16347;53.232;6.556;2023-07-24T12:07:07;100055.34;;;21.90;65.73
29359;BME280;16347;53.232;6.556;2023-07-24T12:09:36;100032.69;;;21.93;65.11
29359;BME280;16347;53.232;6.556;2023-07-24T12:12:05;100022.03;;;21.85;64.59
29359;BME280;16347;53.232;6.556;2023-07-24T12:14:34;100030.06;;;21.86;64.57
29359;BME280;16347;53.232;6.556;2023-07-24T12:17:04;100040.91;;;21.71;64.94
29359;BME280;16347;53.232;6.556;2023-07-24T12:19:36;100049.94;;;21.67;64.84
29359;BME280;16347;53.232;6.556;2023-07-24T12:22:04;100066.13;;;21.58;65.85
29359;BME280;16347;53.232;6.556;2023-07-24T12:24:32;100064.84;;;21.49;67.81
29359;BME280;16347;53.232;6.556;2023-07-24T12:27:00;100065.66;;;21.33;69.62
29359;BME280;16347;53.232;6.556;2023-07-24T12:29:28;100061.19;;;20.92;69.51
29359;BME280;16347;53.232;6.556;2023-07-24T12:31:58;100071.78;;;20.95;70.13
29359;BME280;16347;53.232;6.556;2023-07-24T12:34:26;100064.31;;;20.95;70.67
29359;BME280;16347;53.232;6.556;2023-07-24T12:36:54;100067.34;;;20.94;70.09
29359;BME280;16347;53.232;6.556;2023-07-24T12:39:22;100066.72;;;20.92;70.15
29359;BME280;16347;53.232;6.556;2023-07-24T12:41:50;100063.72;;;20.93;70.76
29359;BME280;16347;53.232;6.556;2023-07-24T12:44:18;100072.41;;;20.85;70.52
29359;BME280;16347;53.232;6.556;2023-07-24T12:46:46;100078.91;;;20.91;70.77
29359;BME280;16347;53.232;6.556;2023-07-24T12:49:15;100066.38;;;20.88;70.68
29359;BME280;16347;53.232;6.556;2023-07-24T12:51:43;100058.34;;;20.87;71.24
29359;BME280;16347;53.232;6.556;2023-07-24T12:54:11;100065.22;;;20.73;71.53
29359;BME280;16347;53.232;6.556;2023-07-24T12:56:49;100063.94;;;20.64;72.80
29359;BME280;16347;53.232;6.556;2023-07-24T12:59:18;100069.81;;;20.56;72.85
29359;BME280;16347;53.232;6.556;2023-07-24T13:01:46;100063.22;;;20.57;73.59